createdAt,value
2016-10-16T00:00:38.903Z,99.99
2016-10-16T00:01:52.545Z,99.99
2016-10-16T00:03:06.125Z,99.99
2016-10-16T00:04:19.173Z,99.99
2016-10-16T00:05:32.830Z,99.99
2016-10-16T00:06:46.832Z,99.99
2016-10-16T00:08:00.459Z,99.99
2016-10-16T00:09:14.142Z,99.99
2016-10-16T00:10:27.802Z,99.99
2016-10-16T00:11:41.399Z,99.99
2016-10-16T00:12:54.470Z,99.99
2016-10-16T00:14:07.881Z,99.99
2016-10-16T00:15:21.597Z,99.99
2016-10-16T00:16:35.232Z,99.99
2016-10-16T00:17:48.833Z,99.99
2016-10-16T00:19:01.986Z,99.99
2016-10-16T00:20:15.082Z,99.99
2016-10-16T00:21:28.181Z,99.99
2016-10-16T00:22:41.271Z,99.99
2016-10-16T00:23:54.874Z,99.99
2016-10-16T00:25:08.540Z,99.99
2016-10-16T00:26:22.157Z,99.99
2016-10-16T00:27:35.954Z,99.99
2016-10-16T00:28:49.054Z,99.99
2016-10-16T00:30:02.110Z,99.99
2016-10-16T00:31:15.768Z,99.99
2016-10-16T00:32:28.836Z,99.99
2016-10-16T00:33:42.492Z,99.99
2016-10-16T00:34:56.108Z,99.99
2016-10-16T00:36:09.735Z,99.99
2016-10-16T00:37:22.833Z,99.99
2016-10-16T00:38:36.456Z,99.99
2016-10-16T00:39:50.064Z,99.99
2016-10-16T00:41:03.720Z,99.99
2016-10-16T00:42:17.328Z,99.99
2016-10-16T00:43:30.987Z,99.99
2016-10-16T00:45:09.792Z,99.99
2016-10-16T00:46:23.290Z,99.99
2016-10-16T00:47:36.264Z,99.99
2016-10-16T00:48:49.935Z,99.99
2016-10-16T00:50:02.925Z,99.99
2016-10-16T00:51:16.424Z,99.99
2016-10-16T00:52:29.994Z,99.99
2016-10-16T00:53:43.508Z,99.99
2016-10-16T00:54:57.309Z,99.99
2016-10-16T00:56:10.794Z,99.99
2016-10-16T00:57:23.291Z,99.99
2016-10-16T00:58:36.245Z,99.99
2016-10-16T00:59:49.900Z,99.99
2016-10-16T01:01:02.693Z,99.99
2016-10-16T01:02:16.149Z,99.99
2016-10-16T01:03:29.598Z,99.99
2016-10-16T01:04:42.565Z,99.99
2016-10-16T01:05:56.140Z,99.99
2016-10-16T01:07:09.202Z,99.99
2016-10-16T01:08:22.415Z,99.99
2016-10-16T01:09:35.431Z,99.99
2016-10-16T01:10:48.982Z,99.99
2016-10-16T01:12:02.011Z,99.99
2016-10-16T01:13:15.041Z,99.99
2016-10-16T01:14:28.047Z,99.99
2016-10-16T01:15:41.611Z,99.99
2016-10-16T01:16:54.693Z,99.99
2016-10-16T01:18:07.771Z,99.99
2016-10-16T01:19:21.448Z,99.99
2016-10-16T01:20:35.128Z,99.99
2016-10-16T01:21:48.684Z,99.99
2016-10-16T01:23:02.276Z,99.99
2016-10-16T01:24:15.409Z,99.99
2016-10-16T01:25:28.977Z,99.99
2016-10-16T01:26:42.588Z,99.99
2016-10-16T01:27:56.473Z,99.99
2016-10-16T01:29:10.097Z,99.99
2016-10-16T01:30:23.232Z,99.99
2016-10-16T01:31:36.911Z,99.99
2016-10-16T01:32:50.048Z,99.99
2016-10-16T01:34:03.458Z,99.99
2016-10-16T01:35:17.040Z,99.99
2016-10-16T01:36:30.621Z,99.99
2016-10-16T01:37:43.916Z,99.99
2016-10-16T01:38:57.063Z,99.99
2016-10-16T01:40:10.738Z,99.99
2016-10-16T01:41:23.928Z,99.99
2016-10-16T01:42:37.511Z,99.99
2016-10-16T01:43:50.231Z,99.99
2016-10-16T01:45:03.340Z,99.99
2016-10-16T01:46:16.987Z,99.99
2016-10-16T01:47:30.644Z,99.99
2016-10-16T01:48:44.298Z,99.99
2016-10-16T01:49:57.944Z,99.99
2016-10-16T01:51:11.027Z,99.99
2016-10-16T01:52:24.632Z,99.99
2016-10-16T01:53:37.823Z,99.99
2016-10-16T01:54:50.936Z,99.99
2016-10-16T01:56:04.557Z,99.99
2016-10-16T01:57:18.240Z,99.99
2016-10-16T01:58:31.311Z,99.99
2016-10-16T01:59:44.000Z,99.99
2016-10-16T02:00:57.619Z,99.99
2016-10-16T02:02:11.227Z,99.99
2016-10-16T02:03:24.885Z,99.99
2016-10-16T02:04:37.897Z,99.99
2016-10-16T02:05:51.585Z,99.99
2016-10-16T02:07:05.254Z,99.99
2016-10-16T02:08:18.923Z,99.99
2016-10-16T02:09:32.052Z,99.99
2016-10-16T02:10:45.179Z,99.99
2016-10-16T02:11:58.786Z,99.99
2016-10-16T02:13:11.884Z,99.99
2016-10-16T02:14:24.981Z,99.99
2016-10-16T02:15:39.052Z,99.99
2016-10-16T02:16:52.697Z,99.99
2016-10-16T02:18:05.850Z,99.99
2016-10-16T02:19:18.907Z,99.99
2016-10-16T02:20:32.569Z,99.99
2016-10-16T02:21:46.216Z,99.99
2016-10-16T02:22:59.829Z,99.99
2016-10-16T02:24:13.425Z,99.99
2016-10-16T02:25:27.097Z,99.99
2016-10-16T02:26:40.202Z,99.99
2016-10-16T02:27:53.883Z,99.99
2016-10-16T02:29:07.503Z,99.99
2016-10-16T02:30:20.687Z,99.99
2016-10-16T02:31:34.298Z,99.99
2016-10-16T02:32:47.618Z,99.99
2016-10-16T02:34:00.733Z,99.99
2016-10-16T02:35:14.318Z,99.99
2016-10-16T02:36:28.028Z,99.99
2016-10-16T02:37:41.687Z,99.99
2016-10-16T02:38:55.308Z,99.99
2016-10-16T02:40:08.909Z,99.99
2016-10-16T02:41:22.535Z,99.99
2016-10-16T02:42:35.631Z,99.99
2016-10-16T02:43:49.275Z,99.99
2016-10-16T02:45:02.430Z,99.99
2016-10-16T02:46:16.033Z,99.99
2016-10-16T02:47:29.668Z,99.99
2016-10-16T02:48:43.272Z,99.99
2016-10-16T02:49:56.897Z,99.99
2016-10-16T02:51:10.500Z,99.99
2016-10-16T02:52:24.192Z,99.99
2016-10-16T02:53:37.840Z,99.99
2016-10-16T02:54:51.095Z,99.99
2016-10-16T02:56:03.692Z,99.99
2016-10-16T02:57:17.257Z,99.99
2016-10-16T02:58:30.861Z,99.99
2016-10-16T02:59:43.435Z,99.99
2016-10-16T03:00:57.039Z,99.99
2016-10-16T03:02:10.709Z,99.99
2016-10-16T03:03:23.990Z,99.99
2016-10-16T03:04:37.404Z,99.99
2016-10-16T03:05:51.091Z,99.99
2016-10-16T03:07:04.717Z,99.99
2016-10-16T03:08:18.362Z,99.99
2016-10-16T03:09:31.967Z,99.99
2016-10-16T03:10:45.055Z,99.99
2016-10-16T03:11:58.740Z,99.99
2016-10-16T03:13:11.922Z,99.99
2016-10-16T03:14:25.557Z,99.99
2016-10-16T03:15:39.161Z,99.99
2016-10-16T03:16:52.859Z,99.99
2016-10-16T03:18:06.474Z,99.99
2016-10-16T03:19:20.114Z,99.99
2016-10-16T03:20:33.735Z,99.99
2016-10-16T03:21:46.992Z,99.99
2016-10-16T03:23:00.588Z,99.99
2016-10-16T03:24:14.229Z,99.99
2016-10-16T03:25:27.931Z,99.99
2016-10-16T03:26:41.637Z,99.99
2016-10-16T03:27:54.713Z,99.99
2016-10-16T03:29:08.341Z,99.99
2016-10-16T03:30:21.964Z,99.99
2016-10-16T03:31:35.099Z,99.99
2016-10-16T03:32:48.713Z,99.99
2016-10-16T03:34:02.343Z,99.99
2016-10-16T03:35:16.021Z,99.99
2016-10-16T03:36:29.403Z,99.99
2016-10-16T03:37:42.975Z,99.99
2016-10-16T03:38:56.606Z,99.99
2016-10-16T03:40:09.700Z,99.99
2016-10-16T03:41:23.370Z,99.99
2016-10-16T03:42:36.481Z,99.99
2016-10-16T03:43:49.487Z,99.99
2016-10-16T03:45:02.572Z,99.99
2016-10-16T03:46:16.174Z,99.99
2016-10-16T03:47:30.061Z,99.99
2016-10-16T03:48:43.966Z,99.99
2016-10-16T03:49:57.569Z,99.99
2016-10-16T03:51:11.204Z,99.99
2016-10-16T03:52:24.925Z,99.99
2016-10-16T03:53:38.032Z,99.99
2016-10-16T03:54:51.740Z,99.99
2016-10-16T03:56:04.811Z,99.99
2016-10-16T03:57:18.449Z,99.99
2016-10-16T03:58:32.075Z,99.99
2016-10-16T03:59:45.640Z,99.99
2016-10-16T04:00:59.267Z,99.99
2016-10-16T04:02:12.082Z,99.99
2016-10-16T04:03:25.752Z,99.99
2016-10-16T04:04:39.413Z,99.99
2016-10-16T04:05:53.039Z,99.99
2016-10-16T04:07:06.716Z,99.99
2016-10-16T04:08:20.279Z,99.99
2016-10-16T04:09:33.912Z,99.99
2016-10-16T04:10:47.575Z,99.99
2016-10-16T04:12:01.354Z,99.99
2016-10-16T04:13:15.064Z,99.99
2016-10-16T04:14:28.740Z,99.99
2016-10-16T04:15:42.360Z,99.99
2016-10-16T04:16:56.042Z,99.99
2016-10-16T04:18:09.744Z,99.99
2016-10-16T04:19:23.408Z,99.99
2016-10-16T04:20:36.261Z,99.99
2016-10-16T04:21:50.007Z,99.99
2016-10-16T04:23:03.637Z,99.99
2016-10-16T04:24:16.896Z,99.99
2016-10-16T04:25:30.619Z,99.99
2016-10-16T04:26:44.261Z,99.99
2016-10-16T04:27:57.836Z,99.99
2016-10-16T04:29:11.431Z,99.99
2016-10-16T04:30:25.044Z,99.99
2016-10-16T04:31:38.660Z,99.99
2016-10-16T04:32:52.299Z,99.99
2016-10-16T04:34:05.445Z,99.99
2016-10-16T04:35:18.515Z,99.99
2016-10-16T04:36:31.640Z,99.99
2016-10-16T04:37:44.690Z,99.99
2016-10-16T04:38:58.339Z,99.99
2016-10-16T04:40:11.941Z,99.99
2016-10-16T04:41:25.071Z,99.99
2016-10-16T04:42:38.216Z,99.99
2016-10-16T04:43:51.851Z,99.99
2016-10-16T04:45:04.910Z,99.99
2016-10-16T04:46:18.523Z,99.99
2016-10-16T04:47:31.590Z,99.99
2016-10-16T04:48:44.137Z,99.99
2016-10-16T04:49:57.174Z,99.99
2016-10-16T04:51:10.770Z,99.99
2016-10-16T04:52:24.603Z,99.99
2016-10-16T04:53:38.212Z,99.99
2016-10-16T04:54:51.933Z,99.99
2016-10-16T04:56:05.570Z,99.99
2016-10-16T04:57:19.212Z,99.99
2016-10-16T04:58:32.810Z,99.99
2016-10-16T04:59:45.927Z,99.99
2016-10-16T05:00:59.565Z,99.99
2016-10-16T05:02:13.166Z,99.99
2016-10-16T05:03:26.833Z,99.99
2016-10-16T05:04:40.434Z,99.99
2016-10-16T05:05:54.055Z,99.99
2016-10-16T05:07:07.360Z,99.99
2016-10-16T05:08:20.024Z,99.99
2016-10-16T05:09:33.695Z,99.99
2016-10-16T05:10:47.349Z,99.99
2016-10-16T05:12:01.004Z,99.99
2016-10-16T05:13:14.661Z,99.99
2016-10-16T05:14:28.278Z,99.99
2016-10-16T05:15:41.958Z,99.99
2016-10-16T05:16:55.600Z,99.99
2016-10-16T05:18:09.199Z,99.99
2016-10-16T05:19:22.292Z,99.99
2016-10-16T05:20:35.425Z,99.99
2016-10-16T05:21:49.083Z,99.99
2016-10-16T05:23:02.967Z,99.99
2016-10-16T05:24:17.251Z,99.99
2016-10-16T05:25:30.862Z,99.99
2016-10-16T05:26:44.547Z,99.99
2016-10-16T05:27:57.632Z,99.99
2016-10-16T05:29:10.939Z,99.99
2016-10-16T05:30:24.676Z,99.99
2016-10-16T05:31:38.307Z,99.99
2016-10-16T05:32:51.445Z,99.99
2016-10-16T05:34:05.072Z,99.99
2016-10-16T05:35:18.198Z,99.99
2016-10-16T05:36:31.839Z,99.99
2016-10-16T05:37:44.909Z,99.99
2016-10-16T05:38:58.566Z,99.99
2016-10-16T05:40:12.280Z,99.99
2016-10-16T05:41:25.903Z,99.99
2016-10-16T05:42:39.505Z,99.99
2016-10-16T05:43:53.126Z,99.99
2016-10-16T05:45:06.747Z,99.99
2016-10-16T05:46:20.304Z,99.99
2016-10-16T05:47:33.885Z,99.99
2016-10-16T05:48:47.507Z,99.99
2016-10-16T05:50:01.197Z,99.99
2016-10-16T05:51:14.869Z,99.99
2016-10-16T05:52:28.680Z,99.99
2016-10-16T05:53:42.340Z,99.99
2016-10-16T05:54:55.978Z,99.99
2016-10-16T05:56:09.647Z,99.99
2016-10-16T05:57:22.733Z,99.99
2016-10-16T05:58:36.213Z,99.99
2016-10-16T05:59:49.846Z,99.99
2016-10-16T06:01:02.946Z,99.99
2016-10-16T06:02:16.055Z,99.99
2016-10-16T06:03:29.720Z,99.99
2016-10-16T06:04:42.768Z,99.99
2016-10-16T06:05:55.846Z,99.99
2016-10-16T06:07:09.447Z,99.99
2016-10-16T06:08:22.503Z,99.99
2016-10-16T06:09:36.135Z,99.99
2016-10-16T06:10:49.850Z,99.99
2016-10-16T06:12:03.412Z,99.99
2016-10-16T06:13:16.618Z,99.99
2016-10-16T06:14:30.219Z,99.99
2016-10-16T06:15:43.990Z,99.99
2016-10-16T06:16:57.635Z,99.99
2016-10-16T06:18:10.755Z,99.99
2016-10-16T06:19:24.466Z,99.99
2016-10-16T06:20:38.100Z,99.99
2016-10-16T06:21:51.762Z,99.99
2016-10-16T06:23:04.858Z,99.99
2016-10-16T06:24:18.489Z,99.99
2016-10-16T06:25:32.107Z,99.99
2016-10-16T06:26:45.745Z,99.99
2016-10-16T06:27:59.398Z,99.99
2016-10-16T06:29:13.103Z,99.99
2016-10-16T06:30:26.742Z,99.99
2016-10-16T06:31:40.333Z,99.99
2016-10-16T06:32:53.977Z,99.99
2016-10-16T06:34:07.791Z,99.99
2016-10-16T06:35:21.410Z,99.99
2016-10-16T06:36:34.493Z,99.99
2016-10-16T06:37:48.985Z,99.99
2016-10-16T06:39:02.090Z,99.99
2016-10-16T06:40:15.762Z,99.99
2016-10-16T06:41:28.829Z,99.99
2016-10-16T06:42:42.461Z,99.99
2016-10-16T06:43:56.071Z,99.99
2016-10-16T06:45:09.432Z,99.99
2016-10-16T06:46:23.103Z,99.99
2016-10-16T06:47:36.778Z,99.99
2016-10-16T06:48:50.470Z,99.99
2016-10-16T06:50:03.331Z,99.99
2016-10-16T06:51:16.580Z,99.99
2016-10-16T06:52:28.858Z,99.99
2016-10-16T06:53:42.459Z,99.99
2016-10-16T06:54:55.573Z,99.99
2016-10-16T06:56:08.607Z,99.99
2016-10-16T06:57:21.240Z,99.99
2016-10-16T06:58:34.276Z,99.99
2016-10-16T06:59:47.886Z,99.99
2016-10-16T07:01:00.963Z,99.99
2016-10-16T07:02:14.642Z,99.99
2016-10-16T07:03:28.375Z,99.99
2016-10-16T07:04:41.998Z,99.99
2016-10-16T07:05:55.108Z,99.99
2016-10-16T07:07:08.746Z,99.99
2016-10-16T07:08:22.396Z,99.99
2016-10-16T07:09:36.017Z,99.99
2016-10-16T07:10:49.716Z,99.99
2016-10-16T07:12:03.332Z,99.99
2016-10-16T07:13:17.272Z,99.99
2016-10-16T07:14:30.922Z,99.99
2016-10-16T07:15:44.512Z,99.99
2016-10-16T07:16:57.845Z,99.99
2016-10-16T07:18:12.123Z,99.99
2016-10-16T07:19:25.715Z,99.99
2016-10-16T07:20:39.307Z,99.99
2016-10-16T07:21:52.944Z,99.99
2016-10-16T07:23:06.593Z,99.99
2016-10-16T07:24:19.827Z,99.99
2016-10-16T07:25:33.508Z,99.99
2016-10-16T07:26:47.358Z,99.99
2016-10-16T07:28:00.395Z,99.99
2016-10-16T07:29:14.243Z,99.99
2016-10-16T07:30:27.909Z,99.99
2016-10-16T07:31:41.498Z,99.99
2016-10-16T07:32:55.093Z,99.99
2016-10-16T07:34:08.794Z,99.99
2016-10-16T07:35:22.413Z,99.99
2016-10-16T07:36:36.058Z,99.99
2016-10-16T07:37:49.163Z,99.99
2016-10-16T07:39:02.793Z,99.99
2016-10-16T07:40:15.959Z,99.99
2016-10-16T07:41:29.671Z,99.99
2016-10-16T07:42:43.364Z,99.99
2016-10-16T07:43:56.997Z,99.99
2016-10-16T07:45:09.540Z,99.99
2016-10-16T07:46:23.242Z,99.99
2016-10-16T07:47:36.985Z,99.99
2016-10-16T07:48:50.579Z,99.99
2016-10-16T07:50:04.134Z,99.99
2016-10-16T07:51:16.804Z,99.99
2016-10-16T07:52:30.159Z,99.99
2016-10-16T07:53:43.729Z,99.99
2016-10-16T07:54:57.300Z,99.99
2016-10-16T07:56:10.921Z,99.99
2016-10-16T07:57:24.660Z,99.99
2016-10-16T07:58:38.308Z,99.99
2016-10-16T07:59:51.895Z,99.99
2016-10-16T08:01:05.525Z,99.99
2016-10-16T08:02:19.103Z,99.99
2016-10-16T08:03:32.173Z,99.99
2016-10-16T08:04:45.264Z,99.99
2016-10-16T08:05:59.086Z,99.99
2016-10-16T08:07:12.678Z,99.99
2016-10-16T08:08:25.815Z,99.99
2016-10-16T08:09:39.407Z,99.99
2016-10-16T08:10:53.021Z,99.99
2016-10-16T08:12:06.146Z,99.99
2016-10-16T08:13:18.752Z,99.99
2016-10-16T08:14:32.451Z,99.99
2016-10-16T08:15:46.283Z,99.99
2016-10-16T08:16:59.914Z,99.99
2016-10-16T08:18:12.511Z,99.99
2016-10-16T08:19:26.215Z,99.99
2016-10-16T08:20:39.866Z,99.99
2016-10-16T08:21:53.548Z,99.99
2016-10-16T08:23:07.153Z,99.99
2016-10-16T08:24:20.843Z,99.99
2016-10-16T08:25:34.495Z,99.99
2016-10-16T08:26:48.093Z,99.99
2016-10-16T08:28:01.160Z,99.99
2016-10-16T08:29:14.832Z,99.99
2016-10-16T08:30:28.505Z,99.99
2016-10-16T08:31:42.168Z,99.99
2016-10-16T08:32:55.817Z,99.99
2016-10-16T08:34:09.442Z,99.99
2016-10-16T08:35:23.038Z,99.99
2016-10-16T08:36:36.758Z,99.99
2016-10-16T08:37:50.365Z,99.99
2016-10-16T08:39:03.513Z,99.99
2016-10-16T08:40:17.327Z,99.99
2016-10-16T08:41:30.991Z,99.99
2016-10-16T08:42:43.518Z,99.99
2016-10-16T08:43:57.135Z,99.99
2016-10-16T08:45:10.685Z,99.99
2016-10-16T08:46:24.286Z,99.99
2016-10-16T08:47:37.904Z,99.99
2016-10-16T08:48:51.449Z,99.99
2016-10-16T08:50:05.177Z,99.99
2016-10-16T08:51:18.819Z,99.99
2016-10-16T08:52:32.505Z,99.99
2016-10-16T08:53:46.116Z,99.99
2016-10-16T08:54:58.737Z,99.99
2016-10-16T08:56:12.300Z,99.99
2016-10-16T08:57:25.350Z,99.99
2016-10-16T08:58:38.991Z,99.99
2016-10-16T08:59:52.679Z,99.99
2016-10-16T09:01:06.295Z,99.99
2016-10-16T09:02:19.926Z,99.99
2016-10-16T09:03:33.545Z,99.99
2016-10-16T09:04:47.335Z,99.99
2016-10-16T09:05:59.952Z,99.99
2016-10-16T09:07:13.627Z,99.99
2016-10-16T09:08:26.754Z,99.99
2016-10-16T09:09:40.434Z,99.99
2016-10-16T09:10:54.140Z,99.99
2016-10-16T09:12:07.821Z,99.99
2016-10-16T09:13:21.617Z,99.99
2016-10-16T09:14:35.219Z,99.99
2016-10-16T09:15:48.839Z,99.99
2016-10-16T09:17:01.957Z,99.99
2016-10-16T09:18:15.083Z,99.99
2016-10-16T09:19:28.781Z,99.99
2016-10-16T09:20:42.493Z,99.99
2016-10-16T09:21:55.795Z,99.99
2016-10-16T09:23:09.434Z,99.99
2016-10-16T09:24:23.088Z,99.99
2016-10-16T09:25:36.796Z,99.99
2016-10-16T09:26:49.961Z,99.99
2016-10-16T09:28:03.598Z,99.99
2016-10-16T09:29:17.355Z,99.99
2016-10-16T09:30:30.745Z,99.99
2016-10-16T09:31:43.846Z,99.99
2016-10-16T09:32:57.486Z,99.99
2016-10-16T09:34:11.104Z,99.99
2016-10-16T09:35:24.253Z,99.99
2016-10-16T09:36:37.844Z,99.99
2016-10-16T09:37:51.661Z,99.99
2016-10-16T09:39:05.506Z,99.99
2016-10-16T09:40:19.103Z,99.99
2016-10-16T09:41:32.192Z,99.99
2016-10-16T09:42:45.303Z,99.99
2016-10-16T09:43:58.932Z,99.99
2016-10-16T09:45:12.565Z,99.99
2016-10-16T09:46:25.404Z,99.99
2016-10-16T09:47:38.767Z,99.99
2016-10-16T09:48:52.445Z,99.99
2016-10-16T09:50:06.115Z,99.99
2016-10-16T09:51:19.350Z,99.99
2016-10-16T09:52:33.001Z,99.99
2016-10-16T09:53:46.624Z,99.99
2016-10-16T09:55:00.257Z,99.99
2016-10-16T09:56:13.869Z,99.99
2016-10-16T09:57:27.533Z,99.99
2016-10-16T09:58:41.174Z,99.99
2016-10-16T09:59:54.787Z,99.99
2016-10-16T10:01:08.348Z,99.99
2016-10-16T10:02:21.965Z,99.99
2016-10-16T10:03:35.080Z,99.99
2016-10-16T10:04:48.727Z,99.99
2016-10-16T10:06:02.066Z,99.99
2016-10-16T10:07:15.720Z,99.99
2016-10-16T10:08:29.347Z,99.99
2016-10-16T10:09:43.154Z,99.99
2016-10-16T10:10:56.289Z,99.99
2016-10-16T10:12:09.858Z,99.99
2016-10-16T10:13:23.574Z,99.99
2016-10-16T10:14:37.274Z,99.99
2016-10-16T10:15:49.804Z,99.99
2016-10-16T10:17:02.901Z,99.99
2016-10-16T10:18:16.020Z,99.99
2016-10-16T10:19:29.130Z,99.99
2016-10-16T10:20:43.230Z,99.99
2016-10-16T10:21:56.306Z,99.99
2016-10-16T10:23:09.891Z,99.99
2016-10-16T10:24:23.554Z,99.99
2016-10-16T10:25:37.118Z,99.99
2016-10-16T10:26:50.798Z,99.99
2016-10-16T10:28:04.377Z,99.99
2016-10-16T10:29:17.993Z,99.99
2016-10-16T10:30:31.142Z,99.99
2016-10-16T10:31:44.779Z,99.99
2016-10-16T10:32:58.480Z,99.99
2016-10-16T10:34:11.634Z,99.99
2016-10-16T10:35:25.254Z,99.99
2016-10-16T10:36:38.366Z,99.99
2016-10-16T10:37:52.021Z,99.99
2016-10-16T10:39:05.672Z,99.99
2016-10-16T10:40:19.341Z,99.99
2016-10-16T10:41:33.018Z,99.99
2016-10-16T10:42:46.387Z,99.99
2016-10-16T10:43:59.985Z,99.99
2016-10-16T10:45:12.541Z,99.99
2016-10-16T10:46:26.221Z,99.99
2016-10-16T10:47:39.900Z,99.99
2016-10-16T10:48:53.575Z,99.99
2016-10-16T10:50:07.169Z,99.99
2016-10-16T10:51:20.901Z,99.99
2016-10-16T10:52:34.513Z,99.99
2016-10-16T10:53:48.096Z,99.99
2016-10-16T10:55:01.227Z,99.99
2016-10-16T10:56:14.332Z,99.99
2016-10-16T10:57:27.992Z,99.6
2016-10-16T10:58:41.640Z,99.31
2016-10-16T10:59:54.832Z,99.4
2016-10-16T11:01:08.411Z,98.39
2016-10-16T11:02:22.007Z,98
2016-10-16T11:03:35.609Z,98
2016-10-16T11:04:49.300Z,97.81
2016-10-16T11:06:02.424Z,97.42
2016-10-16T11:07:16.184Z,96.56
2016-10-16T11:08:29.275Z,96.84
2016-10-16T11:09:42.882Z,97.33
2016-10-16T11:10:56.520Z,96.41
2016-10-16T11:12:10.137Z,95.64
2016-10-16T11:13:23.232Z,95.35
2016-10-16T11:14:36.813Z,94.09
2016-10-16T11:15:50.413Z,94.67
2016-10-16T11:17:04.051Z,93.51
2016-10-16T11:18:17.207Z,93.75
2016-10-16T11:19:30.774Z,93.95
2016-10-16T11:20:45.013Z,93.75
2016-10-16T11:21:58.588Z,93.66
2016-10-16T11:23:12.299Z,92.59
2016-10-16T11:24:25.937Z,93.02
2016-10-16T11:25:39.586Z,92.06
2016-10-16T11:26:52.665Z,91.77
2016-10-16T11:28:05.782Z,91.67
2016-10-16T11:29:19.390Z,90.61
2016-10-16T11:30:33.069Z,91.19
2016-10-16T11:31:46.208Z,90.7
2016-10-16T11:32:59.880Z,90.22
2016-10-16T11:34:12.968Z,89.64
2016-10-16T11:35:26.613Z,89.88
2016-10-16T11:36:40.235Z,89.69
2016-10-16T11:37:53.833Z,89.11
2016-10-16T11:39:07.523Z,88.47
2016-10-16T11:40:21.284Z,88.28
2016-10-16T11:41:34.950Z,88.76
2016-10-16T11:42:48.590Z,88.13
2016-10-16T11:44:02.220Z,87.93
2016-10-16T11:45:15.348Z,87.45
2016-10-16T11:46:29.007Z,87.06
2016-10-16T11:47:42.634Z,87.35
2016-10-16T11:48:55.701Z,86.77
2016-10-16T11:50:09.352Z,86.68
2016-10-16T11:51:21.945Z,86.68
2016-10-16T11:52:35.607Z,86.38
2016-10-16T11:53:49.209Z,86.23
2016-10-16T11:55:02.910Z,85.46
2016-10-16T11:56:15.996Z,85.65
2016-10-16T11:57:29.696Z,85.36
2016-10-16T11:58:43.348Z,85.02
2016-10-16T11:59:56.507Z,84.78
2016-10-16T12:01:09.611Z,84.34
2016-10-16T12:02:23.243Z,84.53
2016-10-16T12:03:37.018Z,83.75
2016-10-16T12:04:50.645Z,83.27
2016-10-16T12:06:03.225Z,83.07
2016-10-16T12:07:16.869Z,84.24
2016-10-16T12:08:29.973Z,83.37
2016-10-16T12:09:43.703Z,82.82
2016-10-16T12:10:57.355Z,81.85
2016-10-16T12:12:10.471Z,82.05
2016-10-16T12:13:24.073Z,81.21
2016-10-16T12:14:37.188Z,81.12
2016-10-16T12:15:50.748Z,81.02
2016-10-16T12:17:04.425Z,81.16
2016-10-16T12:18:18.085Z,80.38
2016-10-16T12:19:31.716Z,80.29
2016-10-16T12:20:45.444Z,79.22
2016-10-16T12:21:59.116Z,79.41
2016-10-16T12:23:12.773Z,79.71
2016-10-16T12:24:26.354Z,80.38
2016-10-16T12:25:40.030Z,80.54
2016-10-16T12:26:53.651Z,80.93
2016-10-16T12:28:06.807Z,80.38
2016-10-16T12:29:19.897Z,80.58
2016-10-16T12:30:33.535Z,78.97
2016-10-16T12:31:47.442Z,78.97
2016-10-16T12:33:01.047Z,79.16
2016-10-16T12:34:14.726Z,78.58
2016-10-16T12:35:28.384Z,78.28
2016-10-16T12:36:41.532Z,78.33
2016-10-16T12:37:55.193Z,77.15
2016-10-16T12:39:08.577Z,78.23
2016-10-16T12:40:21.817Z,77.68
2016-10-16T12:41:35.038Z,77.87
2016-10-16T12:42:48.746Z,77.78
2016-10-16T12:44:02.474Z,77.33
2016-10-16T12:45:16.063Z,76.45
2016-10-16T12:46:29.693Z,76.35
2016-10-16T12:47:43.352Z,76.01
2016-10-16T12:48:56.463Z,75.91
2016-10-16T12:50:10.117Z,74.65
2016-10-16T12:51:23.199Z,75.13
2016-10-16T12:52:36.876Z,74.65
2016-10-16T12:53:50.615Z,74.19
2016-10-16T12:55:04.230Z,73.41
2016-10-16T12:56:17.489Z,73.71
2016-10-16T12:57:30.883Z,73.71
2016-10-16T12:58:44.461Z,72.44
2016-10-16T12:59:58.056Z,72.86
2016-10-16T13:01:11.141Z,72.86
2016-10-16T13:02:24.493Z,72.77
2016-10-16T13:03:38.097Z,72.38
2016-10-16T13:04:51.499Z,72.47
2016-10-16T13:06:05.146Z,72.12
2016-10-16T13:07:18.294Z,71.92
2016-10-16T13:08:31.930Z,71.34
2016-10-16T13:09:45.608Z,71.08
2016-10-16T13:10:58.870Z,70.79
2016-10-16T13:12:12.478Z,70.98
2016-10-16T13:13:26.154Z,70.4
2016-10-16T13:14:39.871Z,70.4
2016-10-16T13:15:53.519Z,69.75
2016-10-16T13:17:06.657Z,69.85
2016-10-16T13:18:19.003Z,69.56
2016-10-16T13:19:32.690Z,69.07
2016-10-16T13:20:45.774Z,68.03
2016-10-16T13:21:59.435Z,68.03
2016-10-16T13:23:12.552Z,68.62
2016-10-16T13:24:26.203Z,67.48
2016-10-16T13:25:38.781Z,67.38
2016-10-16T13:26:52.368Z,67.87
2016-10-16T13:28:05.456Z,67.19
2016-10-16T13:29:19.035Z,66.41
2016-10-16T13:30:32.762Z,67.09
2016-10-16T13:31:45.871Z,66.05
2016-10-16T13:32:58.410Z,66.05
2016-10-16T13:34:11.480Z,65.85
2016-10-16T13:35:24.190Z,65.49
2016-10-16T13:36:37.596Z,64.51
2016-10-16T13:37:51.223Z,63.96
2016-10-16T13:39:04.374Z,63.79
2016-10-16T13:40:18.086Z,63.21
2016-10-16T13:41:31.667Z,62.85
2016-10-16T13:42:45.233Z,61.41
2016-10-16T13:43:58.873Z,60.92
2016-10-16T13:45:12.527Z,60.36
2016-10-16T13:46:26.215Z,60.06
2016-10-16T13:47:39.893Z,59.58
2016-10-16T13:48:53.503Z,59.97
2016-10-16T13:50:07.213Z,59.58
2016-10-16T13:51:20.812Z,59.48
2016-10-16T13:52:34.432Z,59.41
2016-10-16T13:53:48.035Z,58.72
2016-10-16T13:55:01.109Z,58.33
2016-10-16T13:56:14.740Z,58.16
2016-10-16T13:57:28.457Z,57.21
2016-10-16T13:58:41.034Z,56.45
2016-10-16T13:59:54.181Z,55.69
2016-10-16T14:01:07.386Z,55.23
2016-10-16T14:02:20.554Z,54.76
2016-10-16T14:03:34.122Z,54.49
2016-10-16T14:04:47.350Z,53.74
2016-10-16T14:06:00.984Z,52.97
2016-10-16T14:07:14.675Z,52.5
2016-10-16T14:08:28.329Z,51.94
2016-10-16T14:09:41.410Z,51.45
2016-10-16T14:10:55.018Z,51.23
2016-10-16T14:12:08.675Z,51.15
2016-10-16T14:13:22.336Z,50.93
2016-10-16T14:14:35.986Z,50.46
2016-10-16T14:15:49.674Z,50.59
2016-10-16T14:17:02.799Z,50.76
2016-10-16T14:18:16.503Z,50.59
2016-10-16T14:19:29.572Z,51.67
2016-10-16T14:20:43.179Z,52.33
2016-10-16T14:21:56.746Z,51.59
2016-10-16T14:23:10.439Z,50.61
2016-10-16T14:24:24.034Z,51.52
2016-10-16T14:25:37.886Z,51.67
2016-10-16T14:26:51.642Z,50.76
2016-10-16T14:28:05.248Z,50.54
2016-10-16T14:29:18.848Z,50.51
2016-10-16T14:30:32.508Z,49.53
2016-10-16T14:31:46.130Z,49.55
2016-10-16T14:32:59.769Z,49.4
2016-10-16T14:34:12.874Z,49.4
2016-10-16T14:35:26.438Z,50.29
2016-10-16T14:36:40.107Z,49.77
2016-10-16T14:37:53.804Z,50.26
2016-10-16T14:39:07.415Z,50.29
2016-10-16T14:40:21.044Z,49.97
2016-10-16T14:41:34.684Z,48.61
2016-10-16T14:42:47.812Z,48.76
2016-10-16T14:44:01.430Z,47.23
2016-10-16T14:45:14.538Z,46.25
2016-10-16T14:46:27.652Z,46.54
2016-10-16T14:47:41.245Z,47.33
2016-10-16T14:48:54.903Z,47.48
2016-10-16T14:50:08.528Z,47.28
2016-10-16T14:51:38.016Z,46.91
2016-10-16T14:52:52.032Z,46.62
2016-10-16T14:54:05.687Z,45.43
2016-10-16T14:55:19.387Z,45.57
2016-10-16T14:56:33.056Z,45.38
2016-10-16T14:57:46.775Z,45.4
2016-10-16T14:59:00.426Z,45.56
2016-10-16T15:00:14.051Z,45.75
2016-10-16T15:01:27.159Z,44.71
2016-10-16T15:02:40.740Z,44.22
2016-10-16T15:03:54.428Z,44.04
2016-10-16T15:05:08.080Z,44.14
2016-10-16T15:06:21.948Z,43.84
2016-10-16T15:07:35.650Z,44.06
2016-10-16T15:08:49.254Z,43.71
2016-10-16T15:10:02.933Z,42.74
2016-10-16T15:11:16.117Z,43.53
2016-10-16T15:12:29.821Z,42.9
2016-10-16T15:13:43.473Z,42.22
2016-10-16T15:14:57.126Z,42.74
2016-10-16T15:16:10.815Z,42.62
2016-10-16T15:17:24.432Z,44.06
2016-10-16T15:18:38.091Z,44.16
2016-10-16T15:19:51.859Z,44.16
2016-10-16T15:21:05.549Z,44.26
2016-10-16T15:22:18.871Z,43.61
2016-10-16T15:23:31.983Z,43.16
2016-10-16T15:24:45.345Z,41.81
2016-10-16T15:25:58.413Z,41.79
2016-10-16T15:27:12.051Z,42.76
2016-10-16T15:28:25.696Z,43.8
2016-10-16T15:29:39.329Z,43.79
2016-10-16T15:30:52.998Z,44.18
2016-10-16T15:32:06.694Z,46.33
2016-10-16T15:33:20.416Z,47.53
2016-10-16T15:34:34.046Z,46.22
2016-10-16T15:35:46.706Z,47.53
2016-10-16T15:37:00.348Z,48.32
2016-10-16T15:38:14.086Z,48.14
2016-10-16T15:39:27.144Z,48.64
2016-10-16T15:40:40.301Z,48.94
2016-10-16T15:41:53.459Z,49.01
2016-10-16T15:43:07.037Z,48.35
2016-10-16T15:44:20.669Z,48.76
2016-10-16T15:45:34.335Z,48.07
2016-10-16T15:46:47.445Z,47.7
2016-10-16T15:48:01.121Z,47.33